createdAt,value
2023-04-09T00:01:19.024Z,88.90
2023-04-09T00:03:46.989Z,89.10
2023-04-09T00:06:14.877Z,88.20
2023-04-09T00:08:44.040Z,88.00
2023-04-09T00:11:11.929Z,88.50
2023-04-09T00:13:40.155Z,88.50
2023-04-09T00:16:08.965Z,89.60
2023-04-09T00:18:37.173Z,90.10
2023-04-09T00:21:05.619Z,89.30
2023-04-09T00:23:33.436Z,89.30
2023-04-09T00:26:03.021Z,89.00
2023-04-09T00:28:30.810Z,89.00
2023-04-09T00:30:58.602Z,89.60
2023-04-09T00:33:27.216Z,89.10
2023-04-09T00:35:55.618Z,88.90
2023-04-09T00:38:23.494Z,89.00
2023-04-09T00:40:52.084Z,88.90
2023-04-09T00:43:21.534Z,88.90
2023-04-09T00:45:49.503Z,88.50
2023-04-09T00:48:18.377Z,88.00
2023-04-09T00:50:46.278Z,87.80
2023-04-09T00:53:16.856Z,88.00
2023-04-09T00:55:45.807Z,87.90
2023-04-09T00:58:14.439Z,87.00
2023-04-09T01:00:43.680Z,87.10
2023-04-09T01:03:11.718Z,87.20
2023-04-09T01:05:45.785Z,87.20
2023-04-09T01:08:27.685Z,87.40
2023-04-09T01:11:07.152Z,87.10
2023-04-09T01:13:43.624Z,87.90
2023-04-09T01:16:16.379Z,86.80
2023-04-09T01:18:50.370Z,85.70
2023-04-09T01:21:22.397Z,85.50
2023-04-09T01:23:59.112Z,85.80
2023-04-09T01:26:42.276Z,85.90
2023-04-09T01:29:12.141Z,86.60
2023-04-09T01:31:43.425Z,87.10
2023-04-09T01:34:12.557Z,87.50
2023-04-09T01:36:42.934Z,87.90
2023-04-09T01:39:11.145Z,87.70
2023-04-09T01:41:40.521Z,87.70
2023-04-09T01:44:10.446Z,87.20
2023-04-09T01:46:41.309Z,87.70
2023-04-09T01:49:10.881Z,87.80
2023-04-09T01:51:39.481Z,87.60
2023-04-09T01:54:07.318Z,87.80
2023-04-09T01:56:42.226Z,88.00
2023-04-09T01:59:10.056Z,87.90
2023-04-09T02:01:46.218Z,87.80
2023-04-09T02:04:20.909Z,87.60
2023-04-09T02:06:54.868Z,87.90
2023-04-09T02:09:24.174Z,88.20
2023-04-09T02:11:53.107Z,89.10
2023-04-09T02:14:23.213Z,88.70
2023-04-09T02:16:53.528Z,86.70
2023-04-09T02:19:21.344Z,86.60
2023-04-09T02:21:49.170Z,87.50
2023-04-09T02:24:16.965Z,88.20
2023-04-09T02:26:44.790Z,89.00
2023-04-09T02:29:12.573Z,89.40
2023-04-09T02:31:40.378Z,89.50
2023-04-09T02:34:09.508Z,89.40
2023-04-09T02:36:37.338Z,89.70
2023-04-09T02:39:05.385Z,89.70
2023-04-09T02:41:33.200Z,88.90
2023-04-09T02:44:00.987Z,89.00
2023-04-09T02:46:28.893Z,89.20
2023-04-09T02:48:56.944Z,89.70
2023-04-09T02:51:27.417Z,90.00
2023-04-09T02:53:55.341Z,89.80
2023-04-09T02:56:23.139Z,90.20
2023-04-09T02:58:54.097Z,90.80
2023-04-09T03:01:22.323Z,91.60
2023-04-09T03:03:51.402Z,92.00
2023-04-09T03:06:19.365Z,92.10
2023-04-09T03:08:48.470Z,92.10
2023-04-09T03:11:16.804Z,90.80
2023-04-09T03:13:44.680Z,91.60
2023-04-09T03:16:12.512Z,92.40
2023-04-09T03:18:40.309Z,89.60
2023-04-09T03:21:09.582Z,89.10
2023-04-09T03:23:37.464Z,89.00
2023-04-09T03:26:07.344Z,89.40
2023-04-09T03:28:35.144Z,89.80
2023-04-09T03:31:02.999Z,91.50
2023-04-09T03:33:30.886Z,92.10
2023-04-09T03:35:58.765Z,92.60
2023-04-09T03:38:26.569Z,92.10
2023-04-09T03:40:54.387Z,91.70
2023-04-09T03:43:23.711Z,91.50
2023-04-09T03:45:51.494Z,92.40
2023-04-09T03:48:19.264Z,93.20
2023-04-09T03:50:47.157Z,93.60
2023-04-09T03:53:14.972Z,94.30
2023-04-09T03:55:42.763Z,96.20
2023-04-09T03:58:11.112Z,96.40
2023-04-09T04:00:40.276Z,95.30
2023-04-09T04:03:08.218Z,95.70
2023-04-09T04:05:36.120Z,97.10
2023-04-09T04:08:03.897Z,96.60
2023-04-09T04:10:31.804Z,96.00
2023-04-09T04:12:59.597Z,95.10
2023-04-09T04:15:27.444Z,95.40
2023-04-09T04:17:56.746Z,95.60
2023-04-09T04:20:24.560Z,95.40
2023-04-09T04:22:52.351Z,95.70
2023-04-09T04:25:20.287Z,95.90
2023-04-09T04:27:48.116Z,95.60
2023-04-09T04:30:15.917Z,95.80
2023-04-09T04:32:43.729Z,95.60
2023-04-09T04:35:12.889Z,94.90
2023-04-09T04:37:41.394Z,94.90
2023-04-09T04:40:10.505Z,94.90
2023-04-09T04:42:38.312Z,94.90
2023-04-09T04:45:06.994Z,95.00
2023-04-09T04:47:34.822Z,94.80
2023-04-09T04:50:02.682Z,94.50
2023-04-09T04:52:31.888Z,94.20
2023-04-09T04:54:59.694Z,94.20
2023-04-09T04:57:27.504Z,94.10
2023-04-09T04:59:55.367Z,94.30
2023-04-09T05:02:23.343Z,94.40
2023-04-09T05:04:51.248Z,93.10
2023-04-09T05:07:19.058Z,93.10
2023-04-09T05:09:48.384Z,93.00
2023-04-09T05:12:17.918Z,93.10
2023-04-09T05:14:45.769Z,92.70
2023-04-09T05:17:13.564Z,92.60
2023-04-09T05:19:41.405Z,92.60
2023-04-09T05:22:09.190Z,92.70
2023-04-09T05:24:36.997Z,93.30
2023-04-09T05:27:06.499Z,93.40
2023-04-09T05:29:34.337Z,92.00
2023-04-09T05:32:02.165Z,92.10
2023-04-09T05:34:30.229Z,92.10
2023-04-09T05:36:58.090Z,91.30
2023-04-09T05:39:25.978Z,90.50
2023-04-09T05:41:53.955Z,90.60
2023-04-09T05:44:23.102Z,90.60
2023-04-09T05:46:50.946Z,91.80
2023-04-09T05:49:18.769Z,92.20
2023-04-09T05:51:46.587Z,91.80
2023-04-09T05:54:14.430Z,91.80
2023-04-09T05:56:44.161Z,91.80
2023-04-09T05:59:11.990Z,91.30
2023-04-09T06:01:41.163Z,91.70
2023-04-09T06:04:09.144Z,90.50
2023-04-09T06:06:38.808Z,90.60
2023-04-09T06:09:06.722Z,89.50
2023-04-09T06:11:34.880Z,88.80
2023-04-09T06:14:02.778Z,87.50
2023-04-09T06:16:30.604Z,85.40
2023-04-09T06:18:59.766Z,84.00
2023-04-09T06:21:27.934Z,83.10
2023-04-09T06:23:56.077Z,83.50
2023-04-09T06:26:23.873Z,82.60
2023-04-09T06:28:52.353Z,83.00
2023-04-09T06:31:20.502Z,83.20
2023-04-09T06:33:48.297Z,80.10
2023-04-09T06:36:17.505Z,79.90
2023-04-09T06:38:45.373Z,80.70
2023-04-09T06:41:14.785Z,78.80
2023-04-09T06:43:43.180Z,77.60
2023-04-09T06:46:11.420Z,79.70
2023-04-09T06:48:39.234Z,82.30
2023-04-09T06:51:08.420Z,82.70
2023-04-09T06:53:38.564Z,80.70
2023-04-09T06:56:07.164Z,83.20
2023-04-09T06:58:35.084Z,83.20
2023-04-09T07:01:03.015Z,82.00
2023-04-09T07:03:31.281Z,81.00
2023-04-09T07:05:59.358Z,79.80
2023-04-09T07:08:28.602Z,79.60
2023-04-09T07:10:57.745Z,80.20
2023-04-09T07:13:25.732Z,77.70
2023-04-09T07:15:53.542Z,79.10
2023-04-09T07:18:21.330Z,79.10
2023-04-09T07:20:49.126Z,75.40
2023-04-09T07:23:17.319Z,74.80
2023-04-09T07:25:45.129Z,72.70
2023-04-09T07:28:14.392Z,70.70
2023-04-09T07:30:42.185Z,71.30
2023-04-09T07:33:11.093Z,67.90
2023-04-09T07:35:39.117Z,68.40
2023-04-09T07:38:07.200Z,66.70
2023-04-09T07:40:36.653Z,64.20
2023-04-09T07:43:04.775Z,64.90
2023-04-09T07:45:33.993Z,62.50
2023-04-09T07:48:01.880Z,60.30
2023-04-09T07:50:30.056Z,62.20
2023-04-09T07:52:57.842Z,63.70
2023-04-09T07:55:25.963Z,60.00
2023-04-09T07:57:53.858Z,52.30
2023-04-09T08:00:21.838Z,49.40
2023-04-09T08:02:51.577Z,49.00
2023-04-09T08:05:19.680Z,50.60
2023-04-09T08:07:47.522Z,47.70
2023-04-09T08:10:16.408Z,49.20
2023-04-09T08:12:44.833Z,51.40
2023-04-09T08:15:12.841Z,50.80
2023-04-09T08:17:40.744Z,51.40
2023-04-09T08:20:11.314Z,52.20
2023-04-09T08:22:41.044Z,53.10
2023-04-09T08:25:09.545Z,54.10
2023-04-09T08:27:37.370Z,53.00
2023-04-09T08:30:05.856Z,51.90
2023-04-09T08:32:33.860Z,51.30
2023-04-09T08:35:02.114Z,51.00
2023-04-09T08:37:32.414Z,50.10
2023-04-09T08:40:00.368Z,51.30
2023-04-09T08:42:28.583Z,52.50
2023-04-09T08:44:56.945Z,51.30
2023-04-09T08:47:25.476Z,50.60
2023-04-09T08:49:53.373Z,51.10
2023-04-09T08:52:30.910Z,48.10
2023-04-09T08:55:00.252Z,48.90
2023-04-09T08:57:28.241Z,48.40
2023-04-09T08:59:56.420Z,49.20
2023-04-09T09:02:24.378Z,49.70
2023-04-09T09:04:55.053Z,48.70
2023-04-09T09:07:22.838Z,50.40
2023-04-09T09:09:54.760Z,51.20
2023-04-09T09:12:39.211Z,50.40
2023-04-09T09:15:25.298Z,50.50
2023-04-09T09:17:55.941Z,52.10
2023-04-09T09:20:24.430Z,50.30
2023-04-09T09:22:54.669Z,49.70
2023-04-09T09:25:24.812Z,51.00
2023-04-09T09:27:54.920Z,51.10
2023-04-09T09:30:24.492Z,51.00
2023-04-09T09:32:55.873Z,51.10
2023-04-09T09:35:23.754Z,51.40
2023-04-09T09:38:04.102Z,52.50
2023-04-09T09:40:34.929Z,52.80
2023-04-09T09:43:04.132Z,54.30
2023-04-09T09:45:33.534Z,53.50
2023-04-09T09:48:03.991Z,54.60
2023-04-09T09:50:32.716Z,54.60
2023-04-09T09:53:04.610Z,54.30
2023-04-09T09:55:37.974Z,53.90
2023-04-09T09:58:13.380Z,54.10
2023-04-09T10:00:43.168Z,53.60
2023-04-09T10:03:15.934Z,54.70
2023-04-09T10:05:44.607Z,53.10
2023-04-09T10:08:13.292Z,50.90
2023-04-09T10:10:43.363Z,52.30
2023-04-09T10:13:17.420Z,53.20
2023-04-09T10:15:45.980Z,54.20
2023-04-09T10:18:14.001Z,55.50
2023-04-09T10:20:46.167Z,54.40
2023-04-09T10:23:22.815Z,55.50
2023-04-09T10:25:50.725Z,54.80
2023-04-09T10:28:20.352Z,54.50
2023-04-09T10:30:48.290Z,55.10
2023-04-09T10:33:26.286Z,54.90
2023-04-09T10:35:54.839Z,55.70
2023-04-09T10:38:36.719Z,55.20
2023-04-09T10:41:16.587Z,56.40
2023-04-09T10:43:48.180Z,56.00
2023-04-09T10:46:29.902Z,56.60
2023-04-09T10:49:11.413Z,56.20
2023-04-09T10:51:40.279Z,56.30
2023-04-09T10:54:28.576Z,55.90
2023-04-09T10:57:15.037Z,55.80
2023-04-09T10:59:45.442Z,56.60
2023-04-09T11:02:47.477Z,55.80
2023-04-09T11:05:23.319Z,55.10
2023-04-09T11:07:56.167Z,54.60
2023-04-09T11:10:24.073Z,53.30
2023-04-09T11:12:53.766Z,53.70
2023-04-09T11:15:22.332Z,53.20
2023-04-09T11:17:50.858Z,53.30
2023-04-09T11:20:21.849Z,51.60
2023-04-09T11:22:50.871Z,51.10
2023-04-09T11:25:23.023Z,49.40
2023-04-09T11:27:53.901Z,49.10
2023-04-09T11:30:22.268Z,48.20
2023-04-09T11:32:51.046Z,48.10
2023-04-09T11:35:20.547Z,46.60
2023-04-09T11:37:49.993Z,47.50
2023-04-09T11:40:18.786Z,48.00
2023-04-09T11:42:48.685Z,45.70
2023-04-09T11:45:18.784Z,46.30
2023-04-09T11:47:47.586Z,46.30
2023-04-09T11:50:16.513Z,46.10
2023-04-09T11:52:46.149Z,46.40
2023-04-09T11:55:23.537Z,45.50
2023-04-09T11:57:53.166Z,47.20
2023-04-09T12:00:24.753Z,46.90
2023-04-09T12:03:00.484Z,47.30
2023-04-09T12:05:30.557Z,46.00
2023-04-09T12:08:00.891Z,46.10
2023-04-09T12:10:29.656Z,46.00
2023-04-09T12:13:03.417Z,45.70
2023-04-09T12:15:35.856Z,45.60
2023-04-09T12:18:04.445Z,45.60
2023-04-09T12:20:35.010Z,46.40
2023-04-09T12:23:04.642Z,45.80
2023-04-09T12:25:32.999Z,45.30
2023-04-09T12:28:01.470Z,44.30
2023-04-09T12:30:29.340Z,43.90
2023-04-09T12:32:59.055Z,44.20
2023-04-09T12:35:26.980Z,44.70
2023-04-09T12:37:54.858Z,43.70
2023-04-09T12:40:23.459Z,44.70
2023-04-09T12:42:51.760Z,41.90
2023-04-09T12:45:20.969Z,42.20
2023-04-09T12:47:49.148Z,41.80
2023-04-09T12:50:18.339Z,44.10
2023-04-09T12:52:46.467Z,43.60
2023-04-09T12:55:15.558Z,44.50
2023-04-09T12:57:45.063Z,45.80
2023-04-09T13:00:13.988Z,46.60
2023-04-09T13:02:42.272Z,46.30
2023-04-09T13:05:10.594Z,45.90
2023-04-09T13:07:40.872Z,45.30
2023-04-09T13:10:10.597Z,46.40
2023-04-09T13:12:38.403Z,44.90
2023-04-09T13:15:07.387Z,45.70
2023-04-09T13:17:35.259Z,47.30
2023-04-09T13:20:03.290Z,47.30
2023-04-09T13:22:31.220Z,47.20
2023-04-09T13:25:00.351Z,46.30
2023-04-09T13:27:28.164Z,44.80
2023-04-09T13:29:56.050Z,45.40
2023-04-09T13:32:24.401Z,44.20
2023-04-09T13:34:53.839Z,44.00
2023-04-09T13:37:21.896Z,44.20
2023-04-09T13:39:51.458Z,44.30
2023-04-09T13:42:20.764Z,42.90
2023-04-09T13:44:48.709Z,43.60
2023-04-09T13:47:18.381Z,43.70
2023-04-09T13:49:46.337Z,42.90
2023-04-09T13:52:14.299Z,43.70
2023-04-09T13:54:42.513Z,43.80
2023-04-09T13:57:11.080Z,44.40
2023-04-09T13:59:41.682Z,44.30
2023-04-09T14:02:10.314Z,44.70
2023-04-09T14:04:38.371Z,44.70
2023-04-09T14:07:06.257Z,44.80
2023-04-09T14:09:34.241Z,45.40
2023-04-09T14:12:02.591Z,45.80
2023-04-09T14:14:30.466Z,45.30
2023-04-09T14:16:59.681Z,46.10
2023-04-09T14:19:27.528Z,47.10
2023-04-09T14:21:56.040Z,45.90
2023-04-09T14:24:24.016Z,46.80
2023-04-09T14:26:53.485Z,47.20
2023-04-09T14:29:22.522Z,46.10
2023-04-09T14:31:50.636Z,46.30
2023-04-09T14:34:20.183Z,44.30
2023-04-09T14:36:48.144Z,44.20
2023-04-09T14:39:16.138Z,44.70
2023-04-09T14:41:44.178Z,44.10
2023-04-09T14:44:12.081Z,43.90
2023-04-09T14:46:40.139Z,42.30
2023-04-09T14:49:08.107Z,42.20
2023-04-09T14:51:37.324Z,41.60
2023-04-09T14:54:05.270Z,40.70
2023-04-09T14:56:33.186Z,41.50
2023-04-09T14:59:01.045Z,42.10
2023-04-09T15:01:29.430Z,43.10
2023-04-09T15:03:58.164Z,42.60
2023-04-09T15:06:26.326Z,42.50
2023-04-09T15:08:55.562Z,43.00
2023-04-09T15:11:23.598Z,43.90
2023-04-09T15:13:52.981Z,43.20
2023-04-09T15:16:24.602Z,42.70
2023-04-09T15:18:55.822Z,41.80
2023-04-09T15:21:24.381Z,41.80
2023-04-09T15:23:53.043Z,41.80
2023-04-09T15:26:22.199Z,40.90
2023-04-09T15:28:50.355Z,41.60
2023-04-09T15:31:18.288Z,42.40
2023-04-09T15:33:47.132Z,42.50
2023-04-09T15:36:15.143Z,43.10
2023-04-09T15:38:43.128Z,42.50
2023-04-09T15:41:11.182Z,42.60
2023-04-09T15:43:40.517Z,44.20
2023-04-09T15:46:10.623Z,42.50
2023-04-09T15:48:38.633Z,42.80
2023-04-09T15:51:07.155Z,42.90
2023-04-09T15:53:35.135Z,42.80
2023-04-09T15:56:03.622Z,44.40
2023-04-09T15:58:31.509Z,43.70
2023-04-09T16:01:01.458Z,44.30
2023-04-09T16:03:29.395Z,44.80
2023-04-09T16:05:57.185Z,45.10
2023-04-09T16:08:26.304Z,44.90
2023-04-09T16:10:55.130Z,45.10
2023-04-09T16:13:22.935Z,44.00
2023-04-09T16:15:51.070Z,44.90
2023-04-09T16:18:20.575Z,44.20
2023-04-09T16:20:48.441Z,43.70
2023-04-09T16:23:16.232Z,44.40
2023-04-09T16:25:44.013Z,44.70
2023-04-09T16:28:11.816Z,44.60
2023-04-09T16:30:39.614Z,44.80
2023-04-09T16:33:08.657Z,44.20
2023-04-09T16:35:39.648Z,45.00
2023-04-09T16:38:07.971Z,45.70
2023-04-09T16:40:36.446Z,45.50
2023-04-09T16:43:04.364Z,45.60
2023-04-09T16:45:32.708Z,46.00
2023-04-09T16:48:00.689Z,46.30
2023-04-09T16:50:28.713Z,45.50
2023-04-09T16:52:58.070Z,45.80
2023-04-09T16:55:26.054Z,46.00
2023-04-09T16:57:55.930Z,45.60
2023-04-09T17:00:23.954Z,45.70
2023-04-09T17:02:52.032Z,45.70
2023-04-09T17:05:20.297Z,46.30
2023-04-09T17:07:48.218Z,46.50
2023-04-09T17:10:19.036Z,46.10
2023-04-09T17:12:47.171Z,46.60
2023-04-09T17:15:15.045Z,46.20
2023-04-09T17:17:43.578Z,46.20
2023-04-09T17:20:12.543Z,46.00
2023-04-09T17:22:40.342Z,46.30
2023-04-09T17:25:09.407Z,46.60
2023-04-09T17:27:38.547Z,46.40
2023-04-09T17:30:07.609Z,47.10
2023-04-09T17:32:35.429Z,46.80
2023-04-09T17:35:03.720Z,47.60
2023-04-09T17:37:31.532Z,47.60
2023-04-09T17:39:59.315Z,48.10
2023-04-09T17:42:27.244Z,48.60
2023-04-09T17:44:56.429Z,48.90
2023-04-09T17:47:24.433Z,49.60
2023-04-09T17:49:53.606Z,49.50
2023-04-09T17:52:22.382Z,49.80
2023-04-09T17:54:52.226Z,50.30
2023-04-09T17:57:20.041Z,50.30
2023-04-09T17:59:48.886Z,50.60
2023-04-09T18:02:18.325Z,50.80
2023-04-09T18:04:46.528Z,51.20
2023-04-09T18:07:14.453Z,51.20
2023-04-09T18:09:42.256Z,51.70
2023-04-09T18:12:10.036Z,50.60
2023-04-09T18:14:37.912Z,50.30
2023-04-09T18:17:05.709Z,50.50
2023-04-09T18:19:34.870Z,51.20
2023-04-09T18:22:02.706Z,51.70
2023-04-09T18:24:30.536Z,53.60
2023-04-09T18:26:58.927Z,55.00
2023-04-09T18:29:27.504Z,56.40
2023-04-09T18:31:56.273Z,57.20
2023-04-09T18:34:24.235Z,58.30
2023-04-09T18:36:54.573Z,59.60
2023-04-09T18:39:22.897Z,61.20
2023-04-09T18:41:51.126Z,61.40
2023-04-09T18:44:18.996Z,62.10
2023-04-09T18:46:47.165Z,61.90
2023-04-09T18:49:15.049Z,63.30
2023-04-09T18:51:42.859Z,64.30
2023-04-09T18:54:12.059Z,65.00
2023-04-09T18:56:39.834Z,65.60
2023-04-09T18:59:07.627Z,66.30
2023-04-09T19:01:35.543Z,66.40
2023-04-09T19:04:03.591Z,67.00
2023-04-09T19:06:33.107Z,67.20
2023-04-09T19:09:01.152Z,67.10
2023-04-09T19:11:30.356Z,67.50
2023-04-09T19:13:58.187Z,67.60
2023-04-09T19:16:26.128Z,67.90
2023-04-09T19:18:54.380Z,68.00
2023-04-09T19:21:22.550Z,68.20
2023-04-09T19:23:50.398Z,68.40
2023-04-09T19:26:18.922Z,68.90
2023-04-09T19:28:48.062Z,68.90
2023-04-09T19:31:16.992Z,69.10
2023-04-09T19:33:44.939Z,67.10
2023-04-09T19:36:13.062Z,66.80
2023-04-09T19:38:41.093Z,66.00
2023-04-09T19:41:08.993Z,66.90
2023-04-09T19:43:39.112Z,67.40
2023-04-09T19:46:13.302Z,66.90
2023-04-09T19:48:41.580Z,68.30
2023-04-09T19:51:09.530Z,66.80
2023-04-09T19:53:37.799Z,65.60
2023-04-09T19:56:06.259Z,63.40
2023-04-09T19:58:34.055Z,63.60
2023-04-09T20:01:02.653Z,64.00
2023-04-09T20:03:32.890Z,62.90
2023-04-09T20:06:00.962Z,62.30
2023-04-09T20:08:28.786Z,64.50
2023-04-09T20:10:56.711Z,63.40
2023-04-09T20:13:25.344Z,64.70
2023-04-09T20:15:53.129Z,63.90
2023-04-09T20:18:20.956Z,65.10
2023-04-09T20:20:52.085Z,67.30
2023-04-09T20:23:19.952Z,67.70
2023-04-09T20:25:47.745Z,67.80
2023-04-09T20:28:15.592Z,68.90
2023-04-09T20:30:43.425Z,67.90
2023-04-09T20:33:11.609Z,66.50
2023-04-09T20:35:39.433Z,67.50
2023-04-09T20:38:08.561Z,69.20
2023-04-09T20:40:37.731Z,69.00
2023-04-09T20:43:05.811Z,69.30
2023-04-09T20:45:33.745Z,70.20
2023-04-09T20:48:02.186Z,69.80
2023-04-09T20:50:31.016Z,70.70
2023-04-09T20:52:59.648Z,71.20
2023-04-09T20:55:28.829Z,69.30
2023-04-09T20:57:56.662Z,67.60
2023-04-09T21:00:24.778Z,67.40
2023-04-09T21:02:52.813Z,69.10
2023-04-09T21:05:23.902Z,70.70
2023-04-09T21:07:52.468Z,70.60
2023-04-09T21:10:20.893Z,67.10
2023-04-09T21:12:50.148Z,66.40
2023-04-09T21:15:18.031Z,67.70
2023-04-09T21:17:45.931Z,67.10
2023-04-09T21:20:15.135Z,67.10
2023-04-09T21:22:43.147Z,66.90
2023-04-09T21:25:12.184Z,66.60
2023-04-09T21:27:41.648Z,67.10
2023-04-09T21:30:11.580Z,68.50
2023-04-09T21:32:39.477Z,69.50
2023-04-09T21:35:07.752Z,66.00
2023-04-09T21:37:37.497Z,65.50
2023-04-09T21:40:06.283Z,65.90
2023-04-09T21:42:34.095Z,64.40
2023-04-09T21:45:02.312Z,65.40
2023-04-09T21:47:31.933Z,67.30
2023-04-09T21:49:59.958Z,68.00
2023-04-09T21:52:28.147Z,68.40
2023-04-09T21:54:55.956Z,68.70
2023-04-09T21:57:23.822Z,67.20
2023-04-09T21:59:51.652Z,67.30
2023-04-09T22:02:19.857Z,67.90
2023-04-09T22:04:49.117Z,68.80
2023-04-09T22:07:17.066Z,70.60
2023-04-09T22:09:44.913Z,70.20
2023-04-09T22:12:12.723Z,69.90
2023-04-09T22:14:41.912Z,69.20
2023-04-09T22:17:09.874Z,68.70
2023-04-09T22:19:37.733Z,68.70
2023-04-09T22:22:06.864Z,68.00
2023-04-09T22:24:34.666Z,66.90
2023-04-09T22:27:02.563Z,65.40
2023-04-09T22:29:31.306Z,65.00
2023-04-09T22:31:59.100Z,65.80
2023-04-09T22:34:27.157Z,67.10
2023-04-09T22:36:55.009Z,68.80
2023-04-09T22:39:24.254Z,69.00
2023-04-09T22:41:52.080Z,67.90
2023-04-09T22:44:19.897Z,68.60
2023-04-09T22:46:47.772Z,69.40
2023-04-09T22:49:15.861Z,69.20
2023-04-09T22:51:43.828Z,67.50
2023-04-09T22:54:11.674Z,67.70
2023-04-09T22:56:40.850Z,64.70
2023-04-09T22:59:08.669Z,66.20
2023-04-09T23:01:36.765Z,65.10
2023-04-09T23:04:04.705Z,64.80
2023-04-09T23:06:32.556Z,65.20
2023-04-09T23:09:00.475Z,65.20
2023-04-09T23:11:28.289Z,65.30
2023-04-09T23:13:57.469Z,65.20
2023-04-09T23:16:26.290Z,66.20
2023-04-09T23:18:54.618Z,65.60
2023-04-09T23:21:22.609Z,64.90
2023-04-09T23:23:50.414Z,65.30
2023-04-09T23:26:18.210Z,65.60
2023-04-09T23:28:46.062Z,65.60
2023-04-09T23:31:16.053Z,65.20
2023-04-09T23:33:43.820Z,65.00
2023-04-09T23:36:11.673Z,65.50
2023-04-09T23:38:40.435Z,64.30
2023-04-09T23:41:08.305Z,65.50
2023-04-09T23:43:36.119Z,66.90
2023-04-09T23:46:04.023Z,66.30
2023-04-09T23:48:33.273Z,67.50
2023-04-09T23:51:01.058Z,64.80
2023-04-09T23:53:28.869Z,65.80
2023-04-09T23:55:56.673Z,65.80
2023-04-09T23:58:24.496Z,64.90
